CheckWX is a tool to help pilots better visualize weather data.  It is not intended as a substitute for an official pre-flight weather briefing.

05:23:27 UTC

KAUN METAR
Auburn Municipal Airport
Auburn, California, USA
Current

28 mins ago

KAUN 270455Z AUTO 09006KT 10SM CLR 26/14 A2991 RMK A01
Observed
May-27 @ 04:55 UTC
Wind
  • 090° at 6 KTS
Visibility
Flight Rules
VFR
Cloud Levels
  • Clear skies
Temperature
26°C / 79°F
Dewpoint
14°C / 57°F
Humidity
48%
Altimeter
29.91" Hg
Pressure
1012.92 hPa
Previous

48 mins ago

KAUN 270435Z AUTO 00000KT 10SM CLR 25/14 A2991 RMK A01
Observed
May-27 @ 04:35 UTC
Visibility
Flight Rules
VFR
Cloud Levels
  • Clear skies
Temperature
25°C / 77°F
Dewpoint
14°C / 57°F
Humidity
51%
Altimeter
29.91" Hg
Pressure
1012.92 hPa
Previous

1 hour ago

KAUN 270415Z AUTO 00000KT 10SM CLR 24/16 A2990 RMK A01
Observed
May-27 @ 04:15 UTC
Visibility
Flight Rules
VFR
Cloud Levels
  • Clear skies
Temperature
24°C / 75°F
Dewpoint
16°C / 61°F
Humidity
61%
Altimeter
29.9" Hg
Pressure
1012.52 hPa